Aviation Digital Data Service (ADDS)

Output produced by METARs form (1031 UTC 15 July 2020)
found at http://www.aviationweather.gov/metar/data/
 
METAR text: VEGT 151000Z 27006KT 5000 HZ SCT018 FEW025CB BKN100 33/27 Q1001 NOSIG
Conditions at: VEGT (GAUHATI (IN-AFB), IN) observed 1000 UTC 15 July 2020
Temperature: 33.0°C (91°F)
Dewpoint: 27.0°C (81°F) [RH = 71%]
Pressure (altimeter): 29.56 inches Hg (1001.0 mb)
Winds: from the W (270 degrees) at 7 MPH (6 knots; 3.1 m/s)
Visibility: 3 miles ( 5 km)
Ceiling: 10000 feet AGL
Clouds: scattered clouds at 1800 feet AGL
few clouds at 2500 feet AGL
broken clouds at 10000 feet AGL
Weather: HZ  (haze)

METAR text: VEGT 150930Z 29005KT 5000 HZ SCT018 FEW025CB BKN100 34/27 Q1001 NOSIG
Conditions at: VEGT (GAUHATI (IN-AFB), IN) observed 0930 UTC 15 July 2020
Temperature: 34.0°C (93°F)
Dewpoint: 27.0°C (81°F) [RH = 67%]
Pressure (altimeter): 29.56 inches Hg (1001.0 mb)
Winds: from the WNW (290 degrees) at 6 MPH (5 knots; 2.6 m/s)
Visibility: 3 miles ( 5 km)
Ceiling: 10000 feet AGL
Clouds: scattered clouds at 1800 feet AGL
few clouds at 2500 feet AGL
broken clouds at 10000 feet AGL
Weather: HZ  (haze)

METAR text: VEGT 150900Z 29006KT 5000 HZ SCT018 FEW025CB BKN100 34/27 Q1001 BECMG 3000 -TSRA
Conditions at: VEGT (GAUHATI (IN-AFB), IN) observed 0900 UTC 15 July 2020
Temperature: 34.0°C (93°F)
Dewpoint: 27.0°C (81°F) [RH = 67%]
Pressure (altimeter): 29.56 inches Hg (1001.0 mb)
Winds: from the WNW (290 degrees) at 7 MPH (6 knots; 3.1 m/s)
Visibility: 3 miles ( 5 km)
Ceiling: 10000 feet AGL
Clouds: scattered clouds at 1800 feet AGL
few clouds at 2500 feet AGL
broken clouds at 10000 feet AGL
Weather: HZ  (haze)

METAR text: VEGT 150830Z 35006KT 5000 HZ FEW018 BKN100 33/27 Q1002 NOSIG
Conditions at: VEGT (GAUHATI (IN-AFB), IN) observed 0830 UTC 15 July 2020
Temperature: 33.0°C (91°F)
Dewpoint: 27.0°C (81°F) [RH = 71%]
Pressure (altimeter): 29.59 inches Hg (1002.0 mb)
Winds: from the N (350 degrees) at 7 MPH (6 knots; 3.1 m/s)
Visibility: 3 miles ( 5 km)
Ceiling: 10000 feet AGL
Clouds: few clouds at 1800 feet AGL
broken clouds at 10000 feet AGL
Weather: HZ  (haze)

METAR text: VEGT 150800Z 29007KT 5000 BR FEW018 FEW025 BKN100 33/28 Q1002 NOSIG
Conditions at: VEGT (GAUHATI (IN-AFB), IN) observed 0800 UTC 15 July 2020
Temperature: 33.0°C (91°F)
Dewpoint: 28.0°C (82°F) [RH = 75%]
Pressure (altimeter): 29.59 inches Hg (1002.0 mb)
Winds: from the WNW (290 degrees) at 8 MPH (7 knots; 3.6 m/s)
Visibility: 3 miles ( 5 km)
Ceiling: 10000 feet AGL
Clouds: few clouds at 1800 feet AGL
few clouds at 2500 feet AGL
broken clouds at 10000 feet AGL
Weather: BR  (mist)

METAR text: VEGT 150730Z 32006KT 5000 BR FEW018 SCT100 33/29 Q1002 NOSIG
Conditions at: VEGT (GAUHATI (IN-AFB), IN) observed 0730 UTC 15 July 2020
Temperature: 33.0°C (91°F)
Dewpoint: 29.0°C (84°F) [RH = 80%]
Pressure (altimeter): 29.59 inches Hg (1002.0 mb)
Winds: from the NW (320 degrees) at 7 MPH (6 knots; 3.1 m/s)
Visibility: 3 miles ( 5 km)
Ceiling: at least 12,000 feet AGL
Clouds: few clouds at 1800 feet AGL
scattered clouds at 10000 feet AGL
Weather: BR  (mist)

METAR text: VEGT 150700Z 31006KT 5000 BR FEW018 SCT100 32/29 Q1003 NOSIG
Conditions at: VEGT (GAUHATI (IN-AFB), IN) observed 0700 UTC 15 July 2020
Temperature: 32.0°C (90°F)
Dewpoint: 29.0°C (84°F) [RH = 84%]
Pressure (altimeter): 29.62 inches Hg (1003.0 mb)
Winds: from the NW (310 degrees) at 7 MPH (6 knots; 3.1 m/s)
Visibility: 3 miles ( 5 km)
Ceiling: at least 12,000 feet AGL
Clouds: few clouds at 1800 feet AGL
scattered clouds at 10000 feet AGL
Weather: BR  (mist)

METAR text: VEGT 150630Z 31006KT 5000 BR FEW018 SCT100 33/29 Q1003 NOSIG
Conditions at: VEGT (GAUHATI (IN-AFB), IN) observed 0630 UTC 15 July 2020
Temperature: 33.0°C (91°F)
Dewpoint: 29.0°C (84°F) [RH = 80%]
Pressure (altimeter): 29.62 inches Hg (1003.0 mb)
Winds: from the NW (310 degrees) at 7 MPH (6 knots; 3.1 m/s)
Visibility: 3 miles ( 5 km)
Ceiling: at least 12,000 feet AGL
Clouds: few clouds at 1800 feet AGL
scattered clouds at 10000 feet AGL
Weather: BR  (mist)

METAR text: VEGT 150600Z 31008KT 5000 BR FEW018 SCT100 32/29 Q1003 NOSIG
Conditions at: VEGT (GAUHATI (IN-AFB), IN) observed 0600 UTC 15 July 2020
Temperature: 32.0°C (90°F)
Dewpoint: 29.0°C (84°F) [RH = 84%]
Pressure (altimeter): 29.62 inches Hg (1003.0 mb)
Winds: from the NW (310 degrees) at 9 MPH (8 knots; 4.1 m/s)
Visibility: 3 miles ( 5 km)
Ceiling: at least 12,000 feet AGL
Clouds: few clouds at 1800 feet AGL
scattered clouds at 10000 feet AGL
Weather: BR  (mist)

METAR text: VEGT 150530Z 34008KT 5000 BR FEW018 SCT100 32/29 Q1004 NOSIG
Conditions at: VEGT (GAUHATI (IN-AFB), IN) observed 0530 UTC 15 July 2020
Temperature: 32.0°C (90°F)
Dewpoint: 29.0°C (84°F) [RH = 84%]
Pressure (altimeter): 29.65 inches Hg (1004.0 mb)
Winds: from the NNW (340 degrees) at 9 MPH (8 knots; 4.1 m/s)
Visibility: 3 miles ( 5 km)
Ceiling: at least 12,000 feet AGL
Clouds: few clouds at 1800 feet AGL
scattered clouds at 10000 feet AGL
Weather: BR  (mist)

METAR text: VEGT 150500Z 28007KT 5000 BR FEW018 BKN100 31/30 Q1004 NOSIG
Conditions at: VEGT (GAUHATI (IN-AFB), IN) observed 0500 UTC 15 July 2020
Temperature: 31.0°C (88°F)
Dewpoint: 30.0°C (86°F) [RH = 94%]
Pressure (altimeter): 29.65 inches Hg (1004.0 mb)
Winds: from the W (280 degrees) at 8 MPH (7 knots; 3.6 m/s)
Visibility: 3 miles ( 5 km)
Ceiling: 10000 feet AGL
Clouds: few clouds at 1800 feet AGL
broken clouds at 10000 feet AGL
Weather: BR  (mist)

METAR text: VEGT 150430Z 34006KT 5000 BR FEW018 BKN100 31/30 Q1004 NOSIG
Conditions at: VEGT (GAUHATI (IN-AFB), IN) observed 0430 UTC 15 July 2020
Temperature: 31.0°C (88°F)
Dewpoint: 30.0°C (86°F) [RH = 94%]
Pressure (altimeter): 29.65 inches Hg (1004.0 mb)
Winds: from the NNW (340 degrees) at 7 MPH (6 knots; 3.1 m/s)
Visibility: 3 miles ( 5 km)
Ceiling: 10000 feet AGL
Clouds: few clouds at 1800 feet AGL
broken clouds at 10000 feet AGL
Weather: BR  (mist)

METAR text: VEGT 150400Z 34004KT 4000 BR SCT018 BKN100 31/31 Q1004 NOSIG
Conditions at: VEGT (GAUHATI (IN-AFB), IN) observed 0400 UTC 15 July 2020
Temperature: 31.0°C (88°F)
Dewpoint: 31.0°C (88°F) [RH = 100%]
Pressure (altimeter): 29.65 inches Hg (1004.0 mb)
Winds: from the NNW (340 degrees) at 5 MPH (4 knots; 2.1 m/s)
Visibility: 2.49 miles (4.01 km)
Ceiling: 10000 feet AGL
Clouds: scattered clouds at 1800 feet AGL
broken clouds at 10000 feet AGL
Weather: BR  (mist)

METAR text: VEGT 150330Z 34006KT 4000 BR SCT018 BKN100 31/31 Q1004 NOSIG
Conditions at: VEGT (GAUHATI (IN-AFB), IN) observed 0330 UTC 15 July 2020
Temperature: 31.0°C (88°F)
Dewpoint: 31.0°C (88°F) [RH = 100%]
Pressure (altimeter): 29.65 inches Hg (1004.0 mb)
Winds: from the NNW (340 degrees) at 7 MPH (6 knots; 3.1 m/s)
Visibility: 2.49 miles (4.01 km)
Ceiling: 10000 feet AGL
Clouds: scattered clouds at 1800 feet AGL
broken clouds at 10000 feet AGL
Weather: BR  (mist)

METAR text: VEGT 150300Z 27004KT 3000 BR SCT018 BKN100 30/30 Q1004 BECMG 5000 BR
Conditions at: VEGT (GAUHATI (IN-AFB), IN) observed 0300 UTC 15 July 2020
Temperature: 30.0°C (86°F)
Dewpoint: 30.0°C (86°F) [RH = 100%]
Pressure (altimeter): 29.65 inches Hg (1004.0 mb)
Winds: from the W (270 degrees) at 5 MPH (4 knots; 2.1 m/s)
Visibility: 1.86 miles (2.99 km)
Ceiling: 10000 feet AGL
Clouds: scattered clouds at 1800 feet AGL
broken clouds at 10000 feet AGL
Weather: BR  (mist)

METAR text: VEGT 150230Z 00000KT 3000 BR SCT018 BKN100 30/30 Q1004 BECMG 5000 BR
Conditions at: VEGT (GAUHATI (IN-AFB), IN) observed 0230 UTC 15 July 2020
Temperature: 30.0°C (86°F)
Dewpoint: 30.0°C (86°F) [RH = 100%]
Pressure (altimeter): 29.65 inches Hg (1004.0 mb)
Winds: calm
Visibility: 1.86 miles (2.99 km)
Ceiling: 10000 feet AGL
Clouds: scattered clouds at 1800 feet AGL
broken clouds at 10000 feet AGL
Weather: BR  (mist)

METAR text: VEGT 150200Z 00000KT 3000 BR FEW010 SCT018 BKN100 29/29 Q1004 NOSIG
Conditions at: VEGT (GAUHATI (IN-AFB), IN) observed 0200 UTC 15 July 2020
Temperature: 29.0°C (84°F)
Dewpoint: 29.0°C (84°F) [RH = 100%]
Pressure (altimeter): 29.65 inches Hg (1004.0 mb)
Winds: calm
Visibility: 1.86 miles (2.99 km)
Ceiling: 10000 feet AGL
Clouds: few clouds at 1000 feet AGL
scattered clouds at 1800 feet AGL
broken clouds at 10000 feet AGL
Weather: BR  (mist)

METAR text: VEGT 150130Z 00000KT 3000 BR FEW010 SCT018 BKN100 29/29 Q1004 NOSIG
Conditions at: VEGT (GAUHATI (IN-AFB), IN) observed 0130 UTC 15 July 2020
Temperature: 29.0°C (84°F)
Dewpoint: 29.0°C (84°F) [RH = 100%]
Pressure (altimeter): 29.65 inches Hg (1004.0 mb)
Winds: calm
Visibility: 1.86 miles (2.99 km)
Ceiling: 10000 feet AGL
Clouds: few clouds at 1000 feet AGL
scattered clouds at 1800 feet AGL
broken clouds at 10000 feet AGL
Weather: BR  (mist)

METAR text: VEGT 150100Z 00000KT 2500 BR FEW010 SCT018 BKN100 29/29 Q1004 BECMG 3000 BR
Conditions at: VEGT (GAUHATI (IN-AFB), IN) observed 0100 UTC 15 July 2020
Temperature: 29.0°C (84°F)
Dewpoint: 29.0°C (84°F) [RH = 100%]
Pressure (altimeter): 29.65 inches Hg (1004.0 mb)
Winds: calm
Visibility: 1.55 miles (2.49 km)
Ceiling: 10000 feet AGL
Clouds: few clouds at 1000 feet AGL
scattered clouds at 1800 feet AGL
broken clouds at 10000 feet AGL
Weather: BR  (mist)

METAR text: VEGT 150030Z 00000KT 2500 BR FEW010 SCT018 BKN100 28/28 Q1004 NOSIG
Conditions at: VEGT (GAUHATI (IN-AFB), IN) observed 0030 UTC 15 July 2020
Temperature: 28.0°C (82°F)
Dewpoint: 28.0°C (82°F) [RH = 100%]
Pressure (altimeter): 29.65 inches Hg (1004.0 mb)
Winds: calm
Visibility: 1.55 miles (2.49 km)
Ceiling: 10000 feet AGL
Clouds: few clouds at 1000 feet AGL
scattered clouds at 1800 feet AGL
broken clouds at 10000 feet AGL
Weather: BR  (mist)

METAR text: VEGT 150000Z 00000KT 2500 BR FEW010 SCT018 BKN100 28/28 Q1004 NOSIG
Conditions at: VEGT (GAUHATI (IN-AFB), IN) observed 0000 UTC 15 July 2020
Temperature: 28.0°C (82°F)
Dewpoint: 28.0°C (82°F) [RH = 100%]
Pressure (altimeter): 29.65 inches Hg (1004.0 mb)
Winds: calm
Visibility: 1.55 miles (2.49 km)
Ceiling: 10000 feet AGL
Clouds: few clouds at 1000 feet AGL
scattered clouds at 1800 feet AGL
broken clouds at 10000 feet AGL
Weather: BR  (mist)

METAR text: VEGT 142330Z 00000KT 2500 BR FEW010 SCT018 BKN100 28/28 Q1003 NOSIG
Conditions at: VEGT (GAUHATI (IN-AFB), IN) observed 2330 UTC 14 July 2020
Temperature: 28.0°C (82°F)
Dewpoint: 28.0°C (82°F) [RH = 100%]
Pressure (altimeter): 29.62 inches Hg (1003.0 mb)
Winds: calm
Visibility: 1.55 miles (2.49 km)
Ceiling: 10000 feet AGL
Clouds: few clouds at 1000 feet AGL
scattered clouds at 1800 feet AGL
broken clouds at 10000 feet AGL
Weather: BR  (mist)

METAR text: VEGT 142300Z 00000KT 2500 BR FEW010 SCT018 BKN100 28/28 Q1003 NOSIG
Conditions at: VEGT (GAUHATI (IN-AFB), IN) observed 2300 UTC 14 July 2020
Temperature: 28.0°C (82°F)
Dewpoint: 28.0°C (82°F) [RH = 100%]
Pressure (altimeter): 29.62 inches Hg (1003.0 mb)
Winds: calm
Visibility: 1.55 miles (2.49 km)
Ceiling: 10000 feet AGL
Clouds: few clouds at 1000 feet AGL
scattered clouds at 1800 feet AGL
broken clouds at 10000 feet AGL
Weather: BR  (mist)

METAR text: VEGT 141900Z 00000KT 2500 BR FEW010 SCT018 BKN100 29/29 Q1003 NOSIG
Conditions at: VEGT (GAUHATI (IN-AFB), IN) observed 1900 UTC 14 July 2020
Temperature: 29.0°C (84°F)
Dewpoint: 29.0°C (84°F) [RH = 100%]
Pressure (altimeter): 29.62 inches Hg (1003.0 mb)
Winds: calm
Visibility: 1.55 miles (2.49 km)
Ceiling: 10000 feet AGL
Clouds: few clouds at 1000 feet AGL
scattered clouds at 1800 feet AGL
broken clouds at 10000 feet AGL
Weather: BR  (mist)

METAR text: VEGT 141800Z 00000KT 2500 -RA FEW008 SCT016 FEW025CB BKN090 29/29 Q1004 NOSIG
Conditions at: VEGT (GAUHATI (IN-AFB), IN) observed 1800 UTC 14 July 2020
Temperature: 29.0°C (84°F)
Dewpoint: 29.0°C (84°F) [RH = 100%]
Pressure (altimeter): 29.65 inches Hg (1004.0 mb)
Winds: calm
Visibility: 1.55 miles (2.49 km)
Ceiling: 9000 feet AGL
Clouds: few clouds at 800 feet AGL
scattered clouds at 1600 feet AGL
few clouds at 2500 feet AGL
broken clouds at 9000 feet AGL
Weather: -RA  (light rain)

METAR text: VEGT 141730Z 00000KT 2500 -RA FEW008 SCT016 FEW025CB BKN090 29/29 Q1004 NOSIG
Conditions at: VEGT (GAUHATI (IN-AFB), IN) observed 1730 UTC 14 July 2020
Temperature: 29.0°C (84°F)
Dewpoint: 29.0°C (84°F) [RH = 100%]
Pressure (altimeter): 29.65 inches Hg (1004.0 mb)
Winds: calm
Visibility: 1.55 miles (2.49 km)
Ceiling: 9000 feet AGL
Clouds: few clouds at 800 feet AGL
scattered clouds at 1600 feet AGL
few clouds at 2500 feet AGL
broken clouds at 9000 feet AGL
Weather: -RA  (light rain)

METAR text: VEGT 141700Z 00000KT 2500 -RA FEW008 SCT016 FEW025CB BKN090 29/29 Q1004 NOSIG
Conditions at: VEGT (GAUHATI (IN-AFB), IN) observed 1700 UTC 14 July 2020
Temperature: 29.0°C (84°F)
Dewpoint: 29.0°C (84°F) [RH = 100%]
Pressure (altimeter): 29.65 inches Hg (1004.0 mb)
Winds: calm
Visibility: 1.55 miles (2.49 km)
Ceiling: 9000 feet AGL
Clouds: few clouds at 800 feet AGL
scattered clouds at 1600 feet AGL
few clouds at 2500 feet AGL
broken clouds at 9000 feet AGL
Weather: -RA  (light rain)

METAR text: VEGT 141630Z 00000KT 3000 BR SCT018 BKN100 29/29 Q1004 NOSIG
Conditions at: VEGT (GAUHATI (IN-AFB), IN) observed 1630 UTC 14 July 2020
Temperature: 29.0°C (84°F)
Dewpoint: 29.0°C (84°F) [RH = 100%]
Pressure (altimeter): 29.65 inches Hg (1004.0 mb)
Winds: calm
Visibility: 1.86 miles (2.99 km)
Ceiling: 10000 feet AGL
Clouds: scattered clouds at 1800 feet AGL
broken clouds at 10000 feet AGL
Weather: BR  (mist)

METAR text: VEGT 141600Z 00000KT 3000 BR SCT018 BKN100 29/29 Q1004 NOSIG
Conditions at: VEGT (GAUHATI (IN-AFB), IN) observed 1600 UTC 14 July 2020
Temperature: 29.0°C (84°F)
Dewpoint: 29.0°C (84°F) [RH = 100%]
Pressure (altimeter): 29.65 inches Hg (1004.0 mb)
Winds: calm
Visibility: 1.86 miles (2.99 km)
Ceiling: 10000 feet AGL
Clouds: scattered clouds at 1800 feet AGL
broken clouds at 10000 feet AGL
Weather: BR  (mist)

METAR text: VEGT 141530Z 00000KT 3000 BR SCT018 BKN100 30/30 Q1004 NOSIG
Conditions at: VEGT (GAUHATI (IN-AFB), IN) observed 1530 UTC 14 July 2020
Temperature: 30.0°C (86°F)
Dewpoint: 30.0°C (86°F) [RH = 100%]
Pressure (altimeter): 29.65 inches Hg (1004.0 mb)
Winds: calm
Visibility: 1.86 miles (2.99 km)
Ceiling: 10000 feet AGL
Clouds: scattered clouds at 1800 feet AGL
broken clouds at 10000 feet AGL
Weather: BR  (mist)

METAR text: VEGT 141500Z 00000KT 3000 BR SCT018 BKN100 29/29 Q1004 NOSIG
Conditions at: VEGT (GAUHATI (IN-AFB), IN) observed 1500 UTC 14 July 2020
Temperature: 29.0°C (84°F)
Dewpoint: 29.0°C (84°F) [RH = 100%]
Pressure (altimeter): 29.65 inches Hg (1004.0 mb)
Winds: calm
Visibility: 1.86 miles (2.99 km)
Ceiling: 10000 feet AGL
Clouds: scattered clouds at 1800 feet AGL
broken clouds at 10000 feet AGL
Weather: BR  (mist)

METAR text: VEGT 141430Z 00000KT 3000 BR SCT018 BKN100 29/29 Q1003 NOSIG
Conditions at: VEGT (GAUHATI (IN-AFB), IN) observed 1430 UTC 14 July 2020
Temperature: 29.0°C (84°F)
Dewpoint: 29.0°C (84°F) [RH = 100%]
Pressure (altimeter): 29.62 inches Hg (1003.0 mb)
Winds: calm
Visibility: 1.86 miles (2.99 km)
Ceiling: 10000 feet AGL
Clouds: scattered clouds at 1800 feet AGL
broken clouds at 10000 feet AGL
Weather: BR  (mist)

METAR text: VEGT 141400Z 00000KT 4000 BR SCT018 BKN100 30/30 Q1003 BECMG 3000 BR
Conditions at: VEGT (GAUHATI (IN-AFB), IN) observed 1400 UTC 14 July 2020
Temperature: 30.0°C (86°F)
Dewpoint: 30.0°C (86°F) [RH = 100%]
Pressure (altimeter): 29.62 inches Hg (1003.0 mb)
Winds: calm
Visibility: 2.49 miles (4.01 km)
Ceiling: 10000 feet AGL
Clouds: scattered clouds at 1800 feet AGL
broken clouds at 10000 feet AGL
Weather: BR  (mist)

METAR text: VEGT 141330Z 00000KT 4000 BR SCT018 BKN100 29/29 Q1002 NOSIG
Conditions at: VEGT (GAUHATI (IN-AFB), IN) observed 1330 UTC 14 July 2020
Temperature: 29.0°C (84°F)
Dewpoint: 29.0°C (84°F) [RH = 100%]
Pressure (altimeter): 29.59 inches Hg (1002.0 mb)
Winds: calm
Visibility: 2.49 miles (4.01 km)
Ceiling: 10000 feet AGL
Clouds: scattered clouds at 1800 feet AGL
broken clouds at 10000 feet AGL
Weather: BR  (mist)

METAR text: VEGT 141300Z 00000KT 4000 BR SCT018 BKN100 30/30 Q1002 NOSIG
Conditions at: VEGT (GAUHATI (IN-AFB), IN) observed 1300 UTC 14 July 2020
Temperature: 30.0°C (86°F)
Dewpoint: 30.0°C (86°F) [RH = 100%]
Pressure (altimeter): 29.59 inches Hg (1002.0 mb)
Winds: calm
Visibility: 2.49 miles (4.01 km)
Ceiling: 10000 feet AGL
Clouds: scattered clouds at 1800 feet AGL
broken clouds at 10000 feet AGL
Weather: BR  (mist)

METAR text: VEGT 141230Z 00000KT 4000 BR SCT018 BKN100 30/30 Q1002 NOSIG
Conditions at: VEGT (GAUHATI (IN-AFB), IN) observed 1230 UTC 14 July 2020
Temperature: 30.0°C (86°F)
Dewpoint: 30.0°C (86°F) [RH = 100%]
Pressure (altimeter): 29.59 inches Hg (1002.0 mb)
Winds: calm
Visibility: 2.49 miles (4.01 km)
Ceiling: 10000 feet AGL
Clouds: scattered clouds at 1800 feet AGL
broken clouds at 10000 feet AGL
Weather: BR  (mist)

METAR text: VEGT 141200Z 00000KT 4000 BR SCT018 FEW025CB BKN100 31/30 Q1001 NOSIG
Conditions at: VEGT (GAUHATI (IN-AFB), IN) observed 1200 UTC 14 July 2020
Temperature: 31.0°C (88°F)
Dewpoint: 30.0°C (86°F) [RH = 94%]
Pressure (altimeter): 29.56 inches Hg (1001.0 mb)
Winds: calm
Visibility: 2.49 miles (4.01 km)
Ceiling: 10000 feet AGL
Clouds: scattered clouds at 1800 feet AGL
few clouds at 2500 feet AGL
broken clouds at 10000 feet AGL
Weather: BR  (mist)

METAR text: VEGT 141130Z 18003KT 4000 BR SCT018 FEW025CB BKN100 31/30 Q1001 NOSIG
Conditions at: VEGT (GAUHATI (IN-AFB), IN) observed 1130 UTC 14 July 2020
Temperature: 31.0°C (88°F)
Dewpoint: 30.0°C (86°F) [RH = 94%]
Pressure (altimeter): 29.56 inches Hg (1001.0 mb)
Winds: from the S (180 degrees) at 3 MPH (3 knots; 1.5 m/s)
Visibility: 2.49 miles (4.01 km)
Ceiling: 10000 feet AGL
Clouds: scattered clouds at 1800 feet AGL
few clouds at 2500 feet AGL
broken clouds at 10000 feet AGL
Weather: BR  (mist)

METAR text: VEGT 141100Z 00000KT 4000 BR SCT018 FEW025CB BKN100 30/30 Q1001 NOSIG
Conditions at: VEGT (GAUHATI (IN-AFB), IN) observed 1100 UTC 14 July 2020
Temperature: 30.0°C (86°F)
Dewpoint: 30.0°C (86°F) [RH = 100%]
Pressure (altimeter): 29.56 inches Hg (1001.0 mb)
Winds: calm
Visibility: 2.49 miles (4.01 km)
Ceiling: 10000 feet AGL
Clouds: scattered clouds at 1800 feet AGL
few clouds at 2500 feet AGL
broken clouds at 10000 feet AGL
Weather: BR  (mist)

METAR text: VEGT 141030Z 17003KT 4000 BR SCT018 FEW025CB BKN100 29/29 Q1001 NOSIG
Conditions at: VEGT (GAUHATI (IN-AFB), IN) observed 1030 UTC 14 July 2020
Temperature: 29.0°C (84°F)
Dewpoint: 29.0°C (84°F) [RH = 100%]
Pressure (altimeter): 29.56 inches Hg (1001.0 mb)
Winds: from the S (170 degrees) at 3 MPH (3 knots; 1.5 m/s)
Visibility: 2.49 miles (4.01 km)
Ceiling: 10000 feet AGL
Clouds: scattered clouds at 1800 feet AGL
few clouds at 2500 feet AGL
broken clouds at 10000 feet AGL
Weather: BR  (mist)

METAR text: VEGT 141000Z 19006KT 4000 BR SCT018 FEW025CB BKN100 29/29 Q1001 NOSIG
Conditions at: VEGT (GAUHATI (IN-AFB), IN) observed 1000 UTC 14 July 2020
Temperature: 29.0°C (84°F)
Dewpoint: 29.0°C (84°F) [RH = 100%]
Pressure (altimeter): 29.56 inches Hg (1001.0 mb)
Winds: from the S (190 degrees) at 7 MPH (6 knots; 3.1 m/s)
Visibility: 2.49 miles (4.01 km)
Ceiling: 10000 feet AGL
Clouds: scattered clouds at 1800 feet AGL
few clouds at 2500 feet AGL
broken clouds at 10000 feet AGL
Weather: BR  (mist)

METAR text: VEGT 140930Z 19006KT 3000 BR SCT018 FEW025CB BKN100 29/29 Q1001 NOSIG
Conditions at: VEGT (GAUHATI (IN-AFB), IN) observed 0930 UTC 14 July 2020
Temperature: 29.0°C (84°F)
Dewpoint: 29.0°C (84°F) [RH = 100%]
Pressure (altimeter): 29.56 inches Hg (1001.0 mb)
Winds: from the S (190 degrees) at 7 MPH (6 knots; 3.1 m/s)
Visibility: 1.86 miles (2.99 km)
Ceiling: 10000 feet AGL
Clouds: scattered clouds at 1800 feet AGL
few clouds at 2500 feet AGL
broken clouds at 10000 feet AGL
Weather: BR  (mist)

METAR text: VEGT 140900Z 17006KT 2500 -RA FEW010 SCT016 FEW025CB BKN090 28/28 Q1002 BECMG 4000 BR
Conditions at: VEGT (GAUHATI (IN-AFB), IN) observed 0900 UTC 14 July 2020
Temperature: 28.0°C (82°F)
Dewpoint: 28.0°C (82°F) [RH = 100%]
Pressure (altimeter): 29.59 inches Hg (1002.0 mb)
Winds: from the S (170 degrees) at 7 MPH (6 knots; 3.1 m/s)
Visibility: 1.55 miles (2.49 km)
Ceiling: 9000 feet AGL
Clouds: few clouds at 1000 feet AGL
scattered clouds at 1600 feet AGL
few clouds at 2500 feet AGL
broken clouds at 9000 feet AGL
Weather: -RA  (light rain)

METAR text: VEGT 140830Z 17006KT 2500 -TSRA FEW010 SCT016 FEW025CB BKN090 28/28 Q1002 NOSIG
Conditions at: VEGT (GAUHATI (IN-AFB), IN) observed 0830 UTC 14 July 2020
Temperature: 28.0°C (82°F)
Dewpoint: 28.0°C (82°F) [RH = 100%]
Pressure (altimeter): 29.59 inches Hg (1002.0 mb)
Winds: from the S (170 degrees) at 7 MPH (6 knots; 3.1 m/s)
Visibility: 1.55 miles (2.49 km)
Ceiling: 9000 feet AGL
Clouds: few clouds at 1000 feet AGL
scattered clouds at 1600 feet AGL
few clouds at 2500 feet AGL
broken clouds at 9000 feet AGL
Weather: -TSRA  (light rain associated with thunderstorm(s))

METAR text: VEGT 140800Z 12008KT 2500 -TSRA SCT016 FEW025CB BKN090 30/29 Q1003 NOSIG
Conditions at: VEGT (GAUHATI (IN-AFB), IN) observed 0800 UTC 14 July 2020
Temperature: 30.0°C (86°F)
Dewpoint: 29.0°C (84°F) [RH = 94%]
Pressure (altimeter): 29.62 inches Hg (1003.0 mb)
Winds: from the ESE (120 degrees) at 9 MPH (8 knots; 4.1 m/s)
Visibility: 1.55 miles (2.49 km)
Ceiling: 9000 feet AGL
Clouds: scattered clouds at 1600 feet AGL
few clouds at 2500 feet AGL
broken clouds at 9000 feet AGL
Weather: -TSRA  (light rain associated with thunderstorm(s))

METAR text: VEGT 140730Z 25005KT 4500 BR SCT020 FEW025CB BKN100 32/29 Q1003 TEMPO 3000 -TSRA
Conditions at: VEGT (GAUHATI (IN-AFB), IN) observed 0730 UTC 14 July 2020
Temperature: 32.0°C (90°F)
Dewpoint: 29.0°C (84°F) [RH = 84%]
Pressure (altimeter): 29.62 inches Hg (1003.0 mb)
Winds: from the WSW (250 degrees) at 6 MPH (5 knots; 2.6 m/s)
Visibility: 2.80 miles (4.51 km)
Ceiling: 10000 feet AGL
Clouds: scattered clouds at 2000 feet AGL
few clouds at 2500 feet AGL
broken clouds at 10000 feet AGL
Weather: BR  (mist)

METAR text: VEGT 140700Z 30003KT 4500 BR SCT020 FEW025CB BKN100 32/29 Q1003 NOSIG
Conditions at: VEGT (GAUHATI (IN-AFB), IN) observed 0700 UTC 14 July 2020
Temperature: 32.0°C (90°F)
Dewpoint: 29.0°C (84°F) [RH = 84%]
Pressure (altimeter): 29.62 inches Hg (1003.0 mb)
Winds: from the WNW (300 degrees) at 3 MPH (3 knots; 1.5 m/s)
Visibility: 2.80 miles (4.51 km)
Ceiling: 10000 feet AGL
Clouds: scattered clouds at 2000 feet AGL
few clouds at 2500 feet AGL
broken clouds at 10000 feet AGL
Weather: BR  (mist)

METAR text: VEGT 140630Z 34006KT 4000 BR SCT018 FEW025CB BKN100 32/30 Q1003 NOSIG
Conditions at: VEGT (GAUHATI (IN-AFB), IN) observed 0630 UTC 14 July 2020
Temperature: 32.0°C (90°F)
Dewpoint: 30.0°C (86°F) [RH = 89%]
Pressure (altimeter): 29.62 inches Hg (1003.0 mb)
Winds: from the NNW (340 degrees) at 7 MPH (6 knots; 3.1 m/s)
Visibility: 2.49 miles (4.01 km)
Ceiling: 10000 feet AGL
Clouds: scattered clouds at 1800 feet AGL
few clouds at 2500 feet AGL
broken clouds at 10000 feet AGL
Weather: BR  (mist)

METAR text: VEGT 140600Z 34006KT 4000 BR SCT018 SCT100 32/30 Q1003 NOSIG
Conditions at: VEGT (GAUHATI (IN-AFB), IN) observed 0600 UTC 14 July 2020
Temperature: 32.0°C (90°F)
Dewpoint: 30.0°C (86°F) [RH = 89%]
Pressure (altimeter): 29.62 inches Hg (1003.0 mb)
Winds: from the NNW (340 degrees) at 7 MPH (6 knots; 3.1 m/s)
Visibility: 2.49 miles (4.01 km)
Ceiling: at least 12,000 feet AGL
Clouds: scattered clouds at 1800 feet AGL
scattered clouds at 10000 feet AGL
Weather: BR  (mist)

METAR text: VEGT 140530Z 34006KT 4000 BR SCT018 SCT100 32/30 Q1003 NOSIG
Conditions at: VEGT (GAUHATI (IN-AFB), IN) observed 0530 UTC 14 July 2020
Temperature: 32.0°C (90°F)
Dewpoint: 30.0°C (86°F) [RH = 89%]
Pressure (altimeter): 29.62 inches Hg (1003.0 mb)
Winds: from the NNW (340 degrees) at 7 MPH (6 knots; 3.1 m/s)
Visibility: 2.49 miles (4.01 km)
Ceiling: at least 12,000 feet AGL
Clouds: scattered clouds at 1800 feet AGL
scattered clouds at 10000 feet AGL
Weather: BR  (mist)

METAR text: VEGT 140500Z 34006KT 4000 BR SCT018 SCT100 32/30 Q1004 NOSIG
Conditions at: VEGT (GAUHATI (IN-AFB), IN) observed 0500 UTC 14 July 2020
Temperature: 32.0°C (90°F)
Dewpoint: 30.0°C (86°F) [RH = 89%]
Pressure (altimeter): 29.65 inches Hg (1004.0 mb)
Winds: from the NNW (340 degrees) at 7 MPH (6 knots; 3.1 m/s)
Visibility: 2.49 miles (4.01 km)
Ceiling: at least 12,000 feet AGL
Clouds: scattered clouds at 1800 feet AGL
scattered clouds at 10000 feet AGL
Weather: BR  (mist)

METAR text: VEGT 140430Z 33006KT 4000 BR SCT018 SCT100 32/30 Q1004 NOSIG
Conditions at: VEGT (GAUHATI (IN-AFB), IN) observed 0430 UTC 14 July 2020
Temperature: 32.0°C (90°F)
Dewpoint: 30.0°C (86°F) [RH = 89%]
Pressure (altimeter): 29.65 inches Hg (1004.0 mb)
Winds: from the NNW (330 degrees) at 7 MPH (6 knots; 3.1 m/s)
Visibility: 2.49 miles (4.01 km)
Ceiling: at least 12,000 feet AGL
Clouds: scattered clouds at 1800 feet AGL
scattered clouds at 10000 feet AGL
Weather: BR  (mist)

METAR text: VEGT 140400Z 31004KT 4000 BR SCT018 SCT100 32/30 Q1004 NOSIG
Conditions at: VEGT (GAUHATI (IN-AFB), IN) observed 0400 UTC 14 July 2020
Temperature: 32.0°C (90°F)
Dewpoint: 30.0°C (86°F) [RH = 89%]
Pressure (altimeter): 29.65 inches Hg (1004.0 mb)
Winds: from the NW (310 degrees) at 5 MPH (4 knots; 2.1 m/s)
Visibility: 2.49 miles (4.01 km)
Ceiling: at least 12,000 feet AGL
Clouds: scattered clouds at 1800 feet AGL
scattered clouds at 10000 feet AGL
Weather: BR  (mist)

METAR text: VEGT 140330Z 31004KT 4000 BR SCT018 SCT100 31/30 Q1004 NOSIG
Conditions at: VEGT (GAUHATI (IN-AFB), IN) observed 0330 UTC 14 July 2020
Temperature: 31.0°C (88°F)
Dewpoint: 30.0°C (86°F) [RH = 94%]
Pressure (altimeter): 29.65 inches Hg (1004.0 mb)
Winds: from the NW (310 degrees) at 5 MPH (4 knots; 2.1 m/s)
Visibility: 2.49 miles (4.01 km)
Ceiling: at least 12,000 feet AGL
Clouds: scattered clouds at 1800 feet AGL
scattered clouds at 10000 feet AGL
Weather: BR  (mist)

METAR text: VEGT 140300Z 00000KT 4000 BR SCT018 BKN100 30/30 Q1004 NOSIG
Conditions at: VEGT (GAUHATI (IN-AFB), IN) observed 0300 UTC 14 July 2020
Temperature: 30.0°C (86°F)
Dewpoint: 30.0°C (86°F) [RH = 100%]
Pressure (altimeter): 29.65 inches Hg (1004.0 mb)
Winds: calm
Visibility: 2.49 miles (4.01 km)
Ceiling: 10000 feet AGL
Clouds: scattered clouds at 1800 feet AGL
broken clouds at 10000 feet AGL
Weather: BR  (mist)

METAR text: VEGT 140230Z 36004KT 4000 BR SCT018 BKN100 30/29 Q1004 NOSIG
Conditions at: VEGT (GAUHATI (IN-AFB), IN) observed 0230 UTC 14 July 2020
Temperature: 30.0°C (86°F)
Dewpoint: 29.0°C (84°F) [RH = 94%]
Pressure (altimeter): 29.65 inches Hg (1004.0 mb)
Winds: from the N (360 degrees) at 5 MPH (4 knots; 2.1 m/s)
Visibility: 2.49 miles (4.01 km)
Ceiling: 10000 feet AGL
Clouds: scattered clouds at 1800 feet AGL
broken clouds at 10000 feet AGL
Weather: BR  (mist)

METAR text: VEGT 140228Z 36004KT 4000 BR SCT018 BKN100 30/29 Q1004 NOSIG
Conditions at: VEGT (GAUHATI (IN-AFB), IN) observed 0228 UTC 14 July 2020
Temperature: 30.0°C (86°F)
Dewpoint: 29.0°C (84°F) [RH = 94%]
Pressure (altimeter): 29.65 inches Hg (1004.0 mb)
Winds: from the N (360 degrees) at 5 MPH (4 knots; 2.1 m/s)
Visibility: 2.49 miles (4.01 km)
Ceiling: 10000 feet AGL
Clouds: scattered clouds at 1800 feet AGL
broken clouds at 10000 feet AGL
Weather: BR  (mist)

METAR text: VEGT 140200Z 00000KT 3000 BR SCT018 BKN100 30/30 Q1003 NOSIG
Conditions at: VEGT (GAUHATI (IN-AFB), IN) observed 0200 UTC 14 July 2020
Temperature: 30.0°C (86°F)
Dewpoint: 30.0°C (86°F) [RH = 100%]
Pressure (altimeter): 29.62 inches Hg (1003.0 mb)
Winds: calm
Visibility: 1.86 miles (2.99 km)
Ceiling: 10000 feet AGL
Clouds: scattered clouds at 1800 feet AGL
broken clouds at 10000 feet AGL
Weather: BR  (mist)

METAR text: VEGT 140130Z 00000KT 3000 BR SCT018 BKN100 29/29 Q1003 NOSIG
Conditions at: VEGT (GAUHATI (IN-AFB), IN) observed 0130 UTC 14 July 2020
Temperature: 29.0°C (84°F)
Dewpoint: 29.0°C (84°F) [RH = 100%]
Pressure (altimeter): 29.62 inches Hg (1003.0 mb)
Winds: calm
Visibility: 1.86 miles (2.99 km)
Ceiling: 10000 feet AGL
Clouds: scattered clouds at 1800 feet AGL
broken clouds at 10000 feet AGL
Weather: BR  (mist)

METAR text: VEGT 140100Z 00000KT 3000 BR SCT018 FEW025CB BKN100 29/29 Q1003 NOSIG
Conditions at: VEGT (GAUHATI (IN-AFB), IN) observed 0100 UTC 14 July 2020
Temperature: 29.0°C (84°F)
Dewpoint: 29.0°C (84°F) [RH = 100%]
Pressure (altimeter): 29.62 inches Hg (1003.0 mb)
Winds: calm
Visibility: 1.86 miles (2.99 km)
Ceiling: 10000 feet AGL
Clouds: scattered clouds at 1800 feet AGL
few clouds at 2500 feet AGL
broken clouds at 10000 feet AGL
Weather: BR  (mist)

METAR text: VEGT 140030Z 00000KT 3000 BR SCT018 FEW025CB BKN100 28/28 Q1003 NOSIG
Conditions at: VEGT (GAUHATI (IN-AFB), IN) observed 0030 UTC 14 July 2020
Temperature: 28.0°C (82°F)
Dewpoint: 28.0°C (82°F) [RH = 100%]
Pressure (altimeter): 29.62 inches Hg (1003.0 mb)
Winds: calm
Visibility: 1.86 miles (2.99 km)
Ceiling: 10000 feet AGL
Clouds: scattered clouds at 1800 feet AGL
few clouds at 2500 feet AGL
broken clouds at 10000 feet AGL
Weather: BR  (mist)

METAR text: VEGT 140000Z 00000KT 3000 BR FEW008 SCT018 FEW025CB BKN100 29/29 Q1002 NOSIG
Conditions at: VEGT (GAUHATI (IN-AFB), IN) observed 0000 UTC 14 July 2020
Temperature: 29.0°C (84°F)
Dewpoint: 29.0°C (84°F) [RH = 100%]
Pressure (altimeter): 29.59 inches Hg (1002.0 mb)
Winds: calm
Visibility: 1.86 miles (2.99 km)
Ceiling: 10000 feet AGL
Clouds: few clouds at 800 feet AGL
scattered clouds at 1800 feet AGL
few clouds at 2500 feet AGL
broken clouds at 10000 feet AGL
Weather: BR  (mist)

METAR text: VEGT 132330Z 00000KT 3000 BR FEW008 SCT018 BKN100 28/28 Q1002 NOSIG
Conditions at: VEGT (GAUHATI (IN-AFB), IN) observed 2330 UTC 13 July 2020
Temperature: 28.0°C (82°F)
Dewpoint: 28.0°C (82°F) [RH = 100%]
Pressure (altimeter): 29.59 inches Hg (1002.0 mb)
Winds: calm
Visibility: 1.86 miles (2.99 km)
Ceiling: 10000 feet AGL
Clouds: few clouds at 800 feet AGL
scattered clouds at 1800 feet AGL
broken clouds at 10000 feet AGL
Weather: BR  (mist)

Forecast for: VEGT (GAUHATI (IN-AFB), IN)
Text: TAF VEGT 150800Z 1509/1518 32006KT 5000 -RA BR SCT018 SCT100
Forecast period: 0900 to 1200 UTC 15 July 2020
Forecast type: FROM: standard forecast or significant change
Winds: from the NW (320 degrees) at 7 MPH (6 knots; 3.1 m/s)
Visibility: 3 miles (5 km)
Ceiling: at least 12,000 feet AGL
Clouds: scattered clouds at 1800 feet AGL
scattered clouds at 10000 feet AGL
Weather: -RA BR  (light rain, mist)
Text: BECMG 1512/1514 280004KT 3000 -TSRA BR SCT018 FEW025CB BKN090
Forecast period: 1200 to 1800 UTC 15 July 2020
Forecast type: BECOMING: Conditions expected to become as follows by 1400 UTC 15 July 2020
Winds: from the W (280 degrees) at 5 MPH (4 knots; 2.1 m/s)
Visibility: 1.86 miles (2.99 km)
Ceiling: 9000 feet AGL
Clouds: scattered clouds at 1800 feet AGL
few clouds at 2500 feet AGL
broken clouds at 9000 feet AGL
Weather: -TSRA BR  (light rain associated with thunderstorm(s), mist)